Alden, KS

6:55 PM CST on November 22, 2014 (GMT -0600)
RAWS STAFFORD KS US | Change Station
CLOSE
Current Station
Personal Weather Station
Location: Hudson, KS
Elevation: 1768 ft
Nearby Weather Stations

Elev 1768 ft 38.14 °N, 98.48 °W | Updated 56 minutes ago

Overcast
Overcast
56 °F
Feels Like 56 °F
N
14
Wind Variable Wind from SSE
Gusts 22.0 mph

Today
High -- | Low -- °F
--% Chance of Precip.
Yesterday
High -- | Low -- °F
Precip. -- in
7:22 AM 5:16 PM
New Moon, 0% visible
Pressure 29.67 in
Visibility 10.0 miles
Clouds Overcast 1200 ft
Dew Point 53 °F
Humidity 91%
Rainfall 0.00 in
Snow Depth Not available.
UV 0 out of 12
Pollen .10 out of 12
Air Quality Not available.
Flu Activity Not available.
METAR KHUT 222352Z 17016KT 10SM OVC012 14/12 A2969 RMK AO2 SLP047 T01440117 10150 20122 56014

More Conditions Fewer Conditions

Pressure 29.67 in
Visibility 10.0 miles
Clouds Overcast 1200 ft
Dew Point 53 °F
Humidity 91%
Rainfall 0.00 in
Snow Depth Not available.
UV 0 out of 12
Pollen .10 out of 12
Air Quality Not available.
Flu Activity Not available.
METAR KHUT 222352Z 17016KT 10SM OVC012 14/12 A2969 RMK AO2 SLP047 T01440117 10150 20122 56014

More Conditions Fewer Conditions

10-Day Weather Forecast

Almanac

Astronomy

Nov. 22, 2014 Rise Set
Actual Time
Civil Twilight
Nautical Twilight
Astronomical Twilight
Moon
Length of Visible Light
Length of Day
Tomorrow will be .
, % of the Moon is Illuminated

Today's Extremes

State Highs State Lows

Community

WunderPhotos

Upload Photos

1,772,938 photos uploaded!

WunderBlogs® & News

Nearby

Air Quality

  Air Quality AQ Index Pollutant
Not available.

Snow Depth

Station Depth Elevation

Earthquake Activity

City Distance Mag. Time & Date
Minimum magnitude displayed is 2.5.

Coastal Water Temperatures

Place Temperature

Nearby Weather Stations